Time;durP1;ratioP1;P1;durP2;ratioP2;P2;SDS_P1;SDS_P2;PMS_P1;PMS_P2;Temp;Humidity;BMP_temperature;BMP_pressure;BME280_temperature;BME280_humidity;BME280_pressure;Samples;Min_cycle;Max_cycle;Signal;HPM_P1;HPM_P2
2021/06/19 00:20:37;;;;;;;12.73;11.53;;;;;;;;;;5069440;28;20539;-96
2021/06/19 00:23:13;;;;;;;12.43;10.53;;;;;;;;;;5063775;28;20470;-96
2021/06/19 00:25:55;;;;;;;13.97;12.50;;;;;;;;;;5060536;28;20479;-96
2021/06/19 01:18:37;;;;;;;11.53;9.37;;;;;;;;;;5069330;28;20515;-96
2021/06/19 01:23:42;;;;;;;10.07;9.13;;;;;;;;;;5128589;23;20529;-96
2021/06/19 01:29:11;;;;;;;14.03;9.10;;;;;;;;;;5207906;23;20549;-96
2021/06/19 01:34:21;;;;;;;9.30;8.40;;;;;;;;;;5232703;23;20489;-96
2021/06/19 01:36:55;;;;;;;11.43;8.80;;;;;;;;;;5066477;28;20518;-96
2021/06/19 01:48:45;;;;;;;12.30;8.37;;;;;;;;;;5011486;28;20449;-96
2021/06/19 01:51:21;;;;;;;8.53;7.33;;;;;;;;;;4999076;28;20481;-96
2021/06/19 01:56:45;;;;;;;11.40;8.60;;;;;;;;;;5022058;28;20478;-96
2021/06/19 02:01:58;;;;;;;9.53;8.63;;;;;;;;;;5009606;28;20455;-96
2021/06/19 02:15:38;;;;;;;10.93;9.83;;;;;;;;;;5039283;28;20512;-96
2021/06/19 02:18:06;;;;;;;13.33;9.63;;;;;;;;;;5036414;28;20549;-96
2021/06/19 02:23:25;;;;;;;13.20;10.70;;;;;;;;;;5041129;28;20451;-96
2021/06/19 02:25:53;;;;;;;12.43;9.23;;;;;;;;;;5035469;28;20513;-96
2021/06/19 02:28:21;;;;;;;11.87;10.70;;;;;;;;;;5043284;28;20443;-96
2021/06/19 02:30:53;;;;;;;10.90;9.70;;;;;;;;;;5189879;23;20555;-96
2021/06/19 02:33:21;;;;;;;12.43;11.20;;;;;;;;;;5068031;28;20443;-96
2021/06/19 02:35:48;;;;;;;12.93;11.70;;;;;;;;;;5059540;28;20516;-96
2021/06/19 02:38:16;;;;;;;12.33;11.17;;;;;;;;;;5207100;22;20492;-96
2021/06/19 02:43:37;;;;;;;12.83;11.47;;;;;;;;;;5598993;23;20498;-96
2021/06/19 02:46:05;;;;;;;13.07;11.80;;;;;;;;;;5047264;28;20494;-96
2021/06/19 02:48:35;;;;;;;16.07;13.40;;;;;;;;;;5049699;28;20458;-96
2021/06/19 02:51:04;;;;;;;13.73;12.07;;;;;;;;;;5051476;28;20427;-96
2021/06/19 02:56:07;;;;;;;15.30;12.20;;;;;;;;;;5178801;23;20541;-96
2021/06/19 02:58:35;;;;;;;12.13;10.80;;;;;;;;;;5064296;28;20478;-96
2021/06/19 03:01:08;;;;;;;10.50;9.50;;;;;;;;;;5054553;28;20439;-96
2021/06/19 03:03:36;;;;;;;15.97;10.40;;;;;;;;;;5051537;28;20462;-96
2021/06/19 03:09:09;;;;;;;12.40;11.13;;;;;;;;;;5235781;23;20553;-96
2021/06/19 03:11:39;;;;;;;12.83;11.37;;;;;;;;;;5006185;28;20442;-96
2021/06/19 03:14:06;;;;;;;12.30;11.00;;;;;;;;;;4994951;28;20478;-96
2021/06/19 03:16:35;;;;;;;12.00;10.90;;;;;;;;;;4994770;28;20489;-96
2021/06/19 03:19:05;;;;;;;15.17;11.70;;;;;;;;;;5010584;28;20463;-96
2021/06/19 03:21:38;;;;;;;15.30;11.73;;;;;;;;;;4995218;28;20474;-96
2021/06/19 03:24:11;;;;;;;11.93;10.73;;;;;;;;;;5011069;28;20461;-96
2021/06/19 03:29:13;;;;;;;11.50;10.40;;;;;;;;;;5163343;23;20525;-96
2021/06/19 03:31:40;;;;;;;13.17;11.50;;;;;;;;;;5029262;28;20459;-96
2021/06/19 03:34:09;;;;;;;13.73;11.87;;;;;;;;;;5036618;28;20463;-96
2021/06/19 03:40:02;;;;;;;11.23;9.70;;;;;;;;;;5197044;27;114185;-96
2021/06/19 03:42:29;;;;;;;13.40;11.60;;;;;;;;;;5189704;27;20486;-96
2021/06/19 03:44:59;;;;;;;17.13;11.70;;;;;;;;;;5170684;27;20962;-96
2021/06/19 03:47:26;;;;;;;12.43;11.23;;;;;;;;;;5201111;27;20452;-96
2021/06/19 03:49:53;;;;;;;14.00;12.40;;;;;;;;;;5209816;27;20785;-96
2021/06/19 03:52:20;;;;;;;14.43;11.93;;;;;;;;;;5192162;27;20436;-96
2021/06/19 03:59:56;;;;;;;16.27;14.17;;;;;;;;;;5119248;28;20494;-94
2021/06/19 04:07:33;;;;;;;15.50;14.00;;;;;;;;;;5424990;22;20605;-95
2021/06/19 04:12:35;;;;;;;22.73;17.00;;;;;;;;;;5280114;22;21025;-96
2021/06/19 04:20:32;;;;;;;23.10;20.70;;;;;;;;;;5308883;22;20450;-96
2021/06/19 04:23:00;;;;;;;26.50;20.47;;;;;;;;;;5100314;28;20464;-96
2021/06/19 04:25:27;;;;;;;25.53;21.27;;;;;;;;;;5081515;28;20442;-95
2021/06/19 04:30:39;;;;;;;38.93;34.77;;;;;;;;;;5098946;28;20447;-95
2021/06/19 04:33:07;;;;;;;43.33;33.87;;;;;;;;;;5090431;28;20450;-95
2021/06/19 04:35:33;;;;;;;28.93;26.03;;;;;;;;;;5093238;28;20461;-94
2021/06/19 04:38:01;;;;;;;24.00;21.50;;;;;;;;;;5088843;28;20479;-95
2021/06/19 04:40:34;;;;;;;30.77;24.90;;;;;;;;;;5083293;28;20454;-96
2021/06/19 04:43:07;;;;;;;23.30;20.67;;;;;;;;;;5087548;28;20442;-96
2021/06/19 04:45:35;;;;;;;26.30;23.80;;;;;;;;;;5145267;22;20500;-96
2021/06/19 04:48:02;;;;;;;28.57;25.67;;;;;;;;;;5098198;28;20462;-96
2021/06/19 04:50:29;;;;;;;25.97;23.40;;;;;;;;;;5089677;28;20526;-96
2021/06/19 04:52:56;;;;;;;19.10;17.40;;;;;;;;;;5075286;28;20561;-96
2021/06/19 04:55:24;;;;;;;19.53;17.53;;;;;;;;;;5087368;28;20516;-96
2021/06/19 04:57:55;;;;;;;19.97;17.97;;;;;;;;;;5081463;28;20455;-96
2021/06/19 05:00:23;;;;;;;17.27;15.50;;;;;;;;;;5081871;28;20808;-96
2021/06/19 05:02:50;;;;;;;16.23;14.60;;;;;;;;;;5077838;28;20478;-96
2021/06/19 05:05:17;;;;;;;19.13;15.63;;;;;;;;;;5085328;28;20482;-96
2021/06/19 05:16:20;;;;;;;19.33;16.30;;;;;;;;;;5404741;22;20551;-96
2021/06/19 05:18:48;;;;;;;18.07;16.17;;;;;;;;;;5578921;22;20443;-96
2021/06/19 05:21:15;;;;;;;18.27;16.30;;;;;;;;;;5095554;28;20511;-96
2021/06/19 05:26:17;;;;;;;20.90;17.47;;;;;;;;;;5458238;22;20492;-96
2021/06/19 05:36:58;;;;;;;18.93;17.03;;;;;;;;;;6094464;22;20493;-96
2021/06/19 05:39:28;;;;;;;19.10;16.03;;;;;;;;;;5242870;22;20492;-96
2021/06/19 05:41:58;;;;;;;18.80;16.83;;;;;;;;;;5113380;28;20453;-96
2021/06/19 05:44:25;;;;;;;21.50;17.60;;;;;;;;;;5108365;28;20469;-96
2021/06/19 05:46:55;;;;;;;17.70;15.90;;;;;;;;;;5118717;28;20536;-96
2021/06/19 05:49:33;;;;;;;18.33;15.57;;;;;;;;;;5112709;28;20450;-96
2021/06/19 05:57:33;;;;;;;14.97;13.33;;;;;;;;;;5104502;28;20459;-95
2021/06/19 06:00:01;;;;;;;12.97;11.67;;;;;;;;;;5099313;28;20483;-96
2021/06/19 06:07:45;;;;;;;13.80;12.50;;;;;;;;;;5116069;22;20498;-96
2021/06/19 06:16:16;;;;;;;15.07;13.47;;;;;;;;;;6166077;22;20623;-96
2021/06/19 06:18:43;;;;;;;16.40;13.40;;;;;;;;;;5702119;22;20461;-96
2021/06/19 06:32:34;;;;;;;12.80;11.60;;;;;;;;;;6235787;22;20588;31
2021/06/19 06:43:43;;;;;;;13.40;12.03;;;;;;;;;;5790574;22;20460;31
2021/06/19 06:46:12;;;;;;;12.77;11.50;;;;;;;;;;5027741;28;20483;-95
2021/06/19 06:51:26;;;;;;;13.90;10.77;;;;;;;;;;5737230;22;20465;-96
2021/06/19 07:02:47;;;;;;;11.73;10.60;;;;;;;;;;5123894;22;20495;-96
2021/06/19 07:08:35;;;;;;;11.00;9.90;;;;;;;;;;5737711;22;20483;-96
2021/06/19 07:11:03;;;;;;;11.60;10.60;;;;;;;;;;5372370;22;20525;-96
2021/06/19 07:13:32;;;;;;;11.67;10.60;;;;;;;;;;5274310;22;20473;-96
2021/06/19 07:21:29;;;;;;;13.50;12.10;;;;;;;;;;5769305;22;20508;-96
2021/06/19 07:27:10;;;;;;;10.63;9.53;;;;;;;;;;5096029;22;20481;-96
2021/06/19 08:02:47;;;;;;;9.53;8.57;;;;;;;;;;4859081;22;20473;-96
2021/06/19 08:05:16;;;;;;;8.73;8.03;;;;;;;;;;5358661;22;21182;-96
2021/06/19 08:07:45;;;;;;;7.93;7.00;;;;;;;;;;5413181;22;20476;-96
2021/06/19 08:10:18;;;;;;;7.80;7.10;;;;;;;;;;5428630;22;20502;-95
2021/06/19 08:13:04;;;;;;;8.70;8.00;;;;;;;;;;5109231;23;20495;-96
2021/06/19 08:18:30;;;;;;;8.27;7.53;;;;;;;;;;5813978;22;20437;-92
2021/06/19 08:34:43;;;;;;;9.60;8.87;;;;;;;;;;5109760;22;20484;-96
2021/06/19 08:46:12;;;;;;;9.10;8.20;;;;;;;;;;5095647;28;20454;-96
2021/06/19 08:51:32;;;;;;;9.00;7.83;;;;;;;;;;5125153;28;20454;-95
2021/06/19 08:54:02;;;;;;;9.33;8.50;;;;;;;;;;5120693;28;20488;-96
2021/06/19 08:56:47;;;;;;;11.90;10.77;;;;;;;;;;5149582;22;20493;-96
2021/06/19 08:59:22;;;;;;;9.10;8.40;;;;;;;;;;5071171;28;20490;-94
2021/06/19 09:01:58;;;;;;;9.20;7.90;;;;;;;;;;5094052;22;20454;-96
2021/06/19 09:04:31;;;;;;;9.37;8.40;;;;;;;;;;5035678;28;20455;-96
2021/06/19 09:07:00;;;;;;;9.17;8.27;;;;;;;;;;5043213;28;20450;-96
2021/06/19 09:09:38;;;;;;;8.53;7.93;;;;;;;;;;5052416;28;20434;-96
2021/06/19 09:12:09;;;;;;;8.00;7.40;;;;;;;;;;5040946;28;20446;-96
2021/06/19 09:14:54;;;;;;;8.47;7.77;;;;;;;;;;5052838;28;20449;-96
2021/06/19 09:17:30;;;;;;;8.00;7.30;;;;;;;;;;5041316;28;20437;-96
2021/06/19 09:20:11;;;;;;;9.80;9.00;;;;;;;;;;5235177;22;20473;-95
2021/06/19 09:22:38;;;;;;;9.90;9.20;;;;;;;;;;5367926;22;20448;-96
2021/06/19 09:25:08;;;;;;;8.40;7.70;;;;;;;;;;5087475;28;20461;-96
2021/06/19 09:27:45;;;;;;;10.20;9.13;;;;;;;;;;5077957;28;20508;-95
2021/06/19 09:30:13;;;;;;;8.10;7.40;;;;;;;;;;5082354;28;20446;-96
2021/06/19 09:32:55;;;;;;;7.60;7.00;;;;;;;;;;5075404;28;21136;-93
2021/06/19 09:35:24;;;;;;;8.87;8.07;;;;;;;;;;5161983;22;20609;-96
2021/06/19 09:40:41;;;;;;;7.50;6.90;;;;;;;;;;5377014;22;20474;-96
2021/06/19 09:48:31;;;;;;;8.10;7.33;;;;;;;;;;5280623;22;20501;-96
2021/06/19 09:51:24;;;;;;;6.90;6.30;;;;;;;;;;5092202;28;20438;-95
2021/06/19 09:54:08;;;;;;;7.67;7.07;;;;;;;;;;5078097;28;20529;-96
2021/06/19 09:56:47;;;;;;;7.27;6.57;;;;;;;;;;5091827;28;20511;-96
2021/06/19 09:59:38;;;;;;;8.10;6.53;;;;;;;;;;5091768;28;20500;-96
2021/06/19 10:02:18;;;;;;;7.30;6.67;;;;;;;;;;5091546;28;20449;-96
2021/06/19 10:07:58;;;;;;;8.17;7.57;;;;;;;;;;5132083;28;20469;-96
2021/06/19 10:10:39;;;;;;;8.73;7.93;;;;;;;;;;5136162;28;20522;-96
2021/06/19 10:13:26;;;;;;;9.13;8.43;;;;;;;;;;5335502;22;20992;-95
2021/06/19 10:16:07;;;;;;;7.63;7.03;;;;;;;;;;5153832;22;20458;-94
2021/06/19 10:18:34;;;;;;;9.57;8.60;;;;;;;;;;5306124;22;20477;-94
2021/06/19 10:21:07;;;;;;;10.17;9.37;;;;;;;;;;5107076;22;20474;-96
2021/06/19 10:23:35;;;;;;;12.10;11.20;;;;;;;;;;5075332;28;20434;-96
2021/06/19 10:32:08;;;;;;;9.23;8.53;;;;;;;;;;5177906;22;20497;-95
2021/06/19 10:34:44;;;;;;;8.20;7.50;;;;;;;;;;5147731;22;20494;-96
2021/06/19 10:39:58;;;;;;;6.70;6.20;;;;;;;;;;5234484;22;20494;-96
2021/06/19 10:46:04;;;;;;;7.67;6.87;;;;;;;;;;5063453;22;20605;-95
2021/06/19 10:48:41;;;;;;;6.70;6.13;;;;;;;;;;5074188;22;20520;-95
2021/06/19 10:51:33;;;;;;;7.27;6.67;;;;;;;;;;5074985;28;20457;-96
2021/06/19 10:57:01;;;;;;;8.63;7.90;;;;;;;;;;5081871;22;20582;-95
2021/06/19 10:59:54;;;;;;;9.20;8.30;;;;;;;;;;5231295;22;20509;-96
2021/06/19 11:02:42;;;;;;;9.00;8.20;;;;;;;;;;5054832;28;20488;-95
2021/06/19 11:08:17;;;;;;;8.80;8.00;;;;;;;;;;5069462;28;20454;-95
2021/06/19 11:10:59;;;;;;;7.93;7.23;;;;;;;;;;5069037;28;20447;-96
2021/06/19 11:13:44;;;;;;;7.13;6.53;;;;;;;;;;5070005;28;20448;-95
2021/06/19 11:16:35;;;;;;;6.90;6.33;;;;;;;;;;5145023;22;20493;-96
2021/06/19 11:19:01;;;;;;;8.03;7.33;;;;;;;;;;5190914;22;20490;-95
2021/06/19 11:21:30;;;;;;;8.67;7.97;;;;;;;;;;5087781;28;20489;-95
2021/06/19 11:35:29;;;;;;;10.27;7.90;;;;;;;;;;5083160;28;20468;-96
2021/06/19 11:46:02;;;;;;;10.23;8.17;;;;;;;;;;5043040;28;20597;-95
2021/06/19 11:48:30;;;;;;;8.30;7.50;;;;;;;;;;5043098;28;21101;-96
2021/06/19 11:51:05;;;;;;;8.67;7.87;;;;;;;;;;5064172;28;20430;-96
2021/06/19 11:53:33;;;;;;;7.90;7.10;;;;;;;;;;5058084;28;20456;-96
2021/06/19 11:56:06;;;;;;;7.03;6.43;;;;;;;;;;5064584;28;20491;-96
2021/06/19 11:58:43;;;;;;;7.50;6.70;;;;;;;;;;5062447;28;20462;-95
2021/06/19 12:01:11;;;;;;;7.43;6.77;;;;;;;;;;5057352;28;20491;-94
2021/06/19 12:03:38;;;;;;;10.50;6.90;;;;;;;;;;5048586;28;20459;-96
2021/06/19 12:06:07;;;;;;;8.00;7.20;;;;;;;;;;5056823;28;20447;-96
2021/06/19 12:08:34;;;;;;;7.83;6.77;;;;;;;;;;5048419;28;20450;-96
2021/06/19 12:14:26;;;;;;;6.87;6.23;;;;;;;;;;4995591;28;20833;-96
2021/06/19 12:33:05;;;;;;;6.70;6.10;;;;;;;;;;5084426;28;20490;-96
2021/06/19 12:38:03;;;;;;;5.60;5.20;;;;;;;;;;5079990;28;20480;-96
2021/06/19 12:40:32;;;;;;;6.60;6.00;;;;;;;;;;5074360;28;20498;-96
2021/06/19 12:43:04;;;;;;;8.60;6.50;;;;;;;;;;5081727;28;20451;-96
2021/06/19 12:45:33;;;;;;;8.17;7.37;;;;;;;;;;5077100;28;20802;-95
2021/06/19 12:48:02;;;;;;;13.43;12.10;;;;;;;;;;5075550;28;20450;-96
2021/06/19 12:50:39;;;;;;;14.73;11.60;;;;;;;;;;5083059;28;20458;-96
2021/06/19 12:53:12;;;;;;;14.70;11.30;;;;;;;;;;5080075;28;20537;-96
2021/06/19 12:58:34;;;;;;;8.67;7.97;;;;;;;;;;5151165;22;20495;-96
2021/06/19 13:01:01;;;;;;;6.87;6.27;;;;;;;;;;5254537;22;20520;-96
2021/06/19 13:03:43;;;;;;;7.90;6.60;;;;;;;;;;5075541;28;20500;-96
2021/06/19 13:06:15;;;;;;;6.83;6.10;;;;;;;;;;5072419;28;20508;-96
2021/06/19 13:08:42;;;;;;;6.37;5.77;;;;;;;;;;5073085;28;20461;-96
2021/06/19 13:11:20;;;;;;;6.87;5.80;;;;;;;;;;5070540;28;20484;-96
2021/06/19 13:14:14;;;;;;;7.10;6.40;;;;;;;;;;5294424;22;20485;-96
2021/06/19 13:22:06;;;;;;;6.57;5.93;;;;;;;;;;5273528;22;20492;-96
2021/06/19 13:24:33;;;;;;;5.93;5.40;;;;;;;;;;5119876;28;20796;-94
2021/06/19 13:27:07;;;;;;;6.97;6.27;;;;;;;;;;5114341;28;20455;-96
2021/06/19 13:29:38;;;;;;;7.40;5.47;;;;;;;;;;5119857;28;20535;-96
2021/06/19 13:32:05;;;;;;;4.90;4.57;;;;;;;;;;5110232;28;20462;-96
2021/06/19 13:34:32;;;;;;;9.23;5.80;;;;;;;;;;5108524;28;20458;-95
2021/06/19 13:37:01;;;;;;;6.17;5.67;;;;;;;;;;5107120;28;20455;-96
2021/06/19 13:39:29;;;;;;;7.00;6.30;;;;;;;;;;5113350;28;20452;-95
2021/06/19 13:41:57;;;;;;;6.70;5.70;;;;;;;;;;5125502;28;20770;-96
2021/06/19 13:44:24;;;;;;;6.00;5.50;;;;;;;;;;5120721;28;20475;-96
2021/06/19 13:46:52;;;;;;;7.10;6.60;;;;;;;;;;5114937;28;20462;-96
2021/06/19 13:49:21;;;;;;;6.50;5.90;;;;;;;;;;5127959;28;20499;-96
2021/06/19 13:51:49;;;;;;;6.57;5.97;;;;;;;;;;5122678;28;20471;-96
2021/06/19 13:54:16;;;;;;;6.40;5.90;;;;;;;;;;5101350;28;20444;-96
2021/06/19 13:56:44;;;;;;;7.23;6.13;;;;;;;;;;5100450;28;20450;-95
2021/06/19 13:59:11;;;;;;;5.70;5.20;;;;;;;;;;5106750;28;20533;-95
2021/06/19 14:02:04;;;;;;;9.20;6.83;;;;;;;;;;5106364;28;20489;-96
2021/06/19 14:09:48;;;;;;;6.53;5.93;;;;;;;;;;5686604;22;20551;-96
2021/06/19 14:15:02;;;;;;;7.50;5.70;;;;;;;;;;5804585;22;20520;-95
2021/06/19 14:17:29;;;;;;;5.73;5.23;;;;;;;;;;5094764;28;20410;-95
2021/06/19 14:19:55;;;;;;;6.10;5.60;;;;;;;;;;5089622;28;20519;-95
2021/06/19 14:22:23;;;;;;;5.43;5.03;;;;;;;;;;5087167;28;20457;-94
2021/06/19 14:24:49;;;;;;;5.90;5.47;;;;;;;;;;5094903;28;20457;-96
2021/06/19 14:27:21;;;;;;;5.70;5.30;;;;;;;;;;5101871;28;20450;-96
2021/06/19 14:29:48;;;;;;;7.40;5.80;;;;;;;;;;5085324;28;20479;-96
2021/06/19 14:32:28;;;;;;;7.00;6.30;;;;;;;;;;5085756;28;20526;-96
2021/06/19 14:34:59;;;;;;;10.83;7.27;;;;;;;;;;5101171;28;20457;-96
2021/06/19 14:37:28;;;;;;;7.27;6.67;;;;;;;;;;5093367;28;20453;-96
2021/06/19 14:39:55;;;;;;;8.57;7.77;;;;;;;;;;5097394;28;20455;-95
2021/06/19 14:42:21;;;;;;;8.00;7.40;;;;;;;;;;5094673;28;20548;-96
2021/06/19 14:44:48;;;;;;;8.87;8.17;;;;;;;;;;5084287;28;20471;-96
2021/06/19 14:47:18;;;;;;;11.10;8.23;;;;;;;;;;5096459;28;20454;-96
2021/06/19 14:49:47;;;;;;;7.70;6.97;;;;;;;;;;5106835;28;20507;-96
2021/06/19 14:52:35;;;;;;;8.10;7.37;;;;;;;;;;5093244;28;20548;-96
2021/06/19 14:55:02;;;;;;;8.50;7.70;;;;;;;;;;5099972;28;20458;-95
2021/06/19 14:57:28;;;;;;;8.37;7.53;;;;;;;;;;5111056;23;20498;-95
2021/06/19 14:59:55;;;;;;;8.97;7.80;;;;;;;;;;5102428;28;20447;-95
2021/06/19 15:02:23;;;;;;;7.70;7.10;;;;;;;;;;5122690;28;20553;-96
2021/06/19 15:05:10;;;;;;;8.90;8.10;;;;;;;;;;5128477;28;20480;-96
2021/06/19 15:08:15;;;;;;;11.13;7.33;;;;;;;;;;5105309;28;20449;-96
2021/06/19 15:10:45;;;;;;;7.97;7.17;;;;;;;;;;5119903;28;20494;-96
2021/06/19 15:13:15;;;;;;;8.10;7.50;;;;;;;;;;5122258;28;20452;-96
2021/06/19 15:15:42;;;;;;;7.37;6.63;;;;;;;;;;5101504;28;20470;-95
2021/06/19 15:18:10;;;;;;;7.20;6.70;;;;;;;;;;5114056;28;20450;-95
2021/06/19 15:23:34;;;;;;;12.37;6.73;;;;;;;;;;5105988;28;20451;-96
2021/06/19 15:26:00;;;;;;;7.97;7.10;;;;;;;;;;5116675;28;20820;-96
2021/06/19 15:28:30;;;;;;;7.30;6.70;;;;;;;;;;5123690;28;20452;-96
2021/06/19 15:30:58;;;;;;;7.90;6.80;;;;;;;;;;5116362;28;20458;-94
2021/06/19 15:33:26;;;;;;;7.37;6.77;;;;;;;;;;5103414;28;20482;-93
2021/06/19 15:35:53;;;;;;;10.37;7.03;;;;;;;;;;5102232;28;20448;-94
2021/06/19 15:38:19;;;;;;;8.33;7.53;;;;;;;;;;5103460;28;20492;-96
2021/06/19 15:40:46;;;;;;;7.13;6.50;;;;;;;;;;5104837;28;20474;-94
2021/06/19 15:43:14;;;;;;;7.77;7.17;;;;;;;;;;5108101;28;20450;-96
2021/06/19 15:45:41;;;;;;;7.10;6.57;;;;;;;;;;5113321;28;20601;-94
2021/06/19 15:48:08;;;;;;;7.60;6.90;;;;;;;;;;5111508;28;20509;-94
2021/06/19 15:50:36;;;;;;;6.90;6.40;;;;;;;;;;5122265;28;20430;-95
2021/06/19 15:53:05;;;;;;;7.57;6.53;;;;;;;;;;5110306;28;20494;-96
2021/06/19 15:55:32;;;;;;;7.30;6.60;;;;;;;;;;5113417;28;20553;-96
2021/06/19 15:57:58;;;;;;;6.60;6.10;;;;;;;;;;5112745;28;20488;-93
2021/06/19 16:00:25;;;;;;;7.03;6.33;;;;;;;;;;5106779;28;20465;-94
2021/06/19 16:02:51;;;;;;;7.63;6.83;;;;;;;;;;5108255;28;20447;-93
2021/06/19 16:05:18;;;;;;;10.33;6.70;;;;;;;;;;5111078;28;20443;-93
2021/06/19 16:07:49;;;;;;;7.47;6.60;;;;;;;;;;5101406;28;20550;-94
2021/06/19 16:10:16;;;;;;;10.87;6.53;;;;;;;;;;5098284;28;20500;-93
2021/06/19 16:12:42;;;;;;;11.30;6.67;;;;;;;;;;5095836;28;20452;-95
2021/06/19 16:15:10;;;;;;;11.23;6.97;;;;;;;;;;5103250;28;20447;-95
2021/06/19 16:17:36;;;;;;;9.17;6.63;;;;;;;;;;5112501;28;20551;-95
2021/06/19 16:20:03;;;;;;;7.77;6.60;;;;;;;;;;5103244;28;20514;-94
2021/06/19 16:22:30;;;;;;;7.07;6.57;;;;;;;;;;5107027;28;20491;-94
2021/06/19 16:24:57;;;;;;;7.93;6.60;;;;;;;;;;5108711;28;20521;-95
2021/06/19 16:27:24;;;;;;;7.20;6.53;;;;;;;;;;5116569;28;20455;-95
2021/06/19 16:29:51;;;;;;;7.90;6.73;;;;;;;;;;5113747;28;20451;-93
2021/06/19 16:32:17;;;;;;;7.67;6.80;;;;;;;;;;5108113;28;20491;-95
2021/06/19 16:34:44;;;;;;;7.03;6.33;;;;;;;;;;5106148;28;20451;-96
2021/06/19 16:37:10;;;;;;;7.60;6.80;;;;;;;;;;5105701;28;20936;-95
2021/06/19 16:39:37;;;;;;;8.33;7.07;;;;;;;;;;5107049;28;20462;-96
2021/06/19 16:42:06;;;;;;;7.17;6.57;;;;;;;;;;5106931;28;20488;-94
2021/06/19 16:44:32;;;;;;;9.50;6.97;;;;;;;;;;5108423;28;20442;-95
2021/06/19 16:46:59;;;;;;;9.03;6.90;;;;;;;;;;5104512;28;20458;-96
2021/06/19 16:49:26;;;;;;;8.20;6.97;;;;;;;;;;5105325;28;20503;-93
2021/06/19 16:51:52;;;;;;;8.70;7.10;;;;;;;;;;5111500;28;20457;-95
2021/06/19 17:02:31;;;;;;;9.53;7.70;;;;;;;;;;5638772;22;20792;-96
2021/06/19 17:04:58;;;;;;;7.33;6.63;;;;;;;;;;5530584;22;20497;-95
2021/06/19 17:07:33;;;;;;;14.97;7.60;;;;;;;;;;5066370;28;20468;-96
2021/06/19 17:10:00;;;;;;;8.40;7.60;;;;;;;;;;5061843;28;20487;-96
2021/06/19 17:12:27;;;;;;;7.37;6.77;;;;;;;;;;5062404;28;20458;-96
2021/06/19 17:14:54;;;;;;;14.70;7.67;;;;;;;;;;5060971;28;20454;-96
2021/06/19 17:17:23;;;;;;;13.83;7.80;;;;;;;;;;5064848;28;20457;-96
2021/06/19 17:19:51;;;;;;;8.23;7.10;;;;;;;;;;5070483;28;20467;-96
2021/06/19 17:22:17;;;;;;;13.87;7.53;;;;;;;;;;5059293;28;20494;-96
2021/06/19 17:24:47;;;;;;;7.70;6.97;;;;;;;;;;5065475;28;20450;-96
2021/06/19 17:32:41;;;;;;;11.10;9.60;;;;;;;;;;5071267;28;20446;-96
2021/06/19 17:35:10;;;;;;;9.87;7.47;;;;;;;;;;5070654;28;20450;-96
2021/06/19 17:37:37;;;;;;;7.80;6.90;;;;;;;;;;5066711;28;20450;-96
2021/06/19 17:40:11;;;;;;;10.10;6.93;;;;;;;;;;5072002;28;20454;-96
2021/06/19 17:42:39;;;;;;;8.00;7.37;;;;;;;;;;5067158;28;20490;-96
2021/06/19 17:45:09;;;;;;;13.43;7.20;;;;;;;;;;5070633;28;20448;-96
2021/06/19 17:47:36;;;;;;;11.47;7.57;;;;;;;;;;5069506;28;20462;-96
2021/06/19 18:04:26;;;;;;;8.37;7.57;;;;;;;;;;5184213;22;20467;-96
2021/06/19 19:23:27;;;;;;;31.30;20.17;;;;;;;;;;5927199;22;20483;-96
2021/06/19 20:42:08;;;;;;;17.20;12.77;;;;;;;;;;5100689;28;20478;-96
2021/06/19 20:50:53;;;;;;;14.23;11.57;;;;;;;;;;5083192;28;20446;-96
2021/06/19 21:31:03;;;;;;;9.70;8.30;;;;;;;;;;5063116;28;20449;-96
2021/06/19 21:47:45;;;;;;;11.97;9.17;;;;;;;;;;5080728;28;20458;-96
2021/06/19 21:53:02;;;;;;;16.17;11.40;;;;;;;;;;5095663;28;20464;-96
2021/06/19 22:00:59;;;;;;;12.73;10.33;;;;;;;;;;5081536;28;20460;-96
2021/06/19 22:03:27;;;;;;;10.37;9.37;;;;;;;;;;5188364;22;20503;-96
2021/06/19 22:08:54;;;;;;;10.60;9.57;;;;;;;;;;5027515;28;20443;-96
2021/06/19 22:11:26;;;;;;;10.83;9.50;;;;;;;;;;5061837;28;20473;-96
2021/06/19 22:17:01;;;;;;;12.40;9.70;;;;;;;;;;5128901;23;20490;-96
2021/06/19 22:19:48;;;;;;;11.60;9.20;;;;;;;;;;5041769;28;20479;-96
2021/06/19 22:25:18;;;;;;;12.87;9.60;;;;;;;;;;5039201;28;20456;-96
2021/06/19 22:27:49;;;;;;;12.77;10.50;;;;;;;;;;5029665;28;20458;-96
2021/06/19 23:02:34;;;;;;;14.60;12.50;;;;;;;;;;5085182;28;20508;-96
2021/06/19 23:05:13;;;;;;;16.50;12.57;;;;;;;;;;5088257;28;20445;-96
2021/06/19 23:07:44;;;;;;;11.37;10.27;;;;;;;;;;5091191;28;20513;-96
2021/06/19 23:10:15;;;;;;;14.73;11.60;;;;;;;;;;5079493;28;20485;-96
2021/06/19 23:32:14;;;;;;;10.90;9.80;;;;;;;;;;5266702;22;20481;-94
2021/06/19 23:34:42;;;;;;;14.33;10.60;;;;;;;;;;5088360;28;20485;-96
2021/06/19 23:39:50;;;;;;;12.40;9.50;;;;;;;;;;5090156;28;20461;-96
2021/06/19 23:48:10;;;;;;;17.67;7.93;;;;;;;;;;5169188;22;20490;-96
